createdAt,value
2023-03-10T00:00:45.908Z,9.26
2023-03-10T00:05:47.554Z,9.36
2023-03-10T00:10:49.220Z,9.34
2023-03-10T00:15:50.820Z,9.07
2023-03-10T00:20:53.501Z,8.96
2023-03-10T00:26:00.663Z,8.83
2023-03-10T00:31:08.171Z,8.71
2023-03-10T00:36:18.817Z,8.62
2023-03-10T00:41:25.475Z,8.59
2023-03-10T00:46:28.185Z,8.54
2023-03-10T00:51:29.911Z,8.48
2023-03-10T00:56:31.487Z,8.42
2023-03-10T01:01:36.419Z,8.36
2023-03-10T01:06:38.188Z,8.27
2023-03-10T01:11:40.064Z,8.21
2023-03-10T01:16:41.959Z,8.14
2023-03-10T01:21:43.583Z,8.12
2023-03-10T01:26:45.473Z,8.12
2023-03-10T01:31:47.393Z,8.10
2023-03-10T01:36:49.233Z,8.08
2023-03-10T01:41:50.828Z,8.10
2023-03-10T01:46:54.153Z,8.12
2023-03-10T01:52:06.724Z,8.19
2023-03-10T01:57:08.682Z,8.22
2023-03-10T02:02:13.090Z,8.26
2023-03-10T02:07:18.834Z,8.25
2023-03-10T02:12:20.566Z,8.24
2023-03-10T02:17:25.001Z,8.27
2023-03-10T02:22:26.728Z,8.28
2023-03-10T02:27:33.682Z,8.29
2023-03-10T02:32:40.397Z,8.32
2023-03-10T02:37:42.263Z,8.50
2023-03-10T02:42:43.876Z,8.74
2023-03-10T02:47:45.535Z,8.83
2023-03-10T02:52:55.398Z,9.01
2023-03-10T02:57:57.086Z,9.22
2023-03-10T03:02:58.898Z,9.30
2023-03-10T03:08:00.622Z,9.22
2023-03-10T03:13:05.189Z,9.13
2023-03-10T03:18:07.324Z,9.24
2023-03-10T03:23:10.829Z,9.36
2023-03-10T03:28:13.142Z,9.22
2023-03-10T03:33:15.645Z,9.15
2023-03-10T03:38:18.862Z,9.20
2023-03-10T03:43:20.889Z,9.37
2023-03-10T03:48:23.153Z,9.47
2023-03-10T03:53:25.928Z,9.40
2023-03-10T03:58:27.618Z,9.29
2023-03-10T04:03:29.384Z,9.14
2023-03-10T04:08:31.474Z,9.03
2023-03-10T04:13:33.141Z,8.92
2023-03-10T04:18:35.991Z,8.90
2023-03-10T04:23:42.048Z,8.93
2023-03-10T04:28:45.507Z,8.83
2023-03-10T04:33:50.669Z,8.63
2023-03-10T04:38:53.086Z,8.48
2023-03-10T04:43:57.349Z,8.34
2023-03-10T04:48:59.217Z,8.14
2023-03-10T04:54:01.191Z,7.97
2023-03-10T04:59:06.265Z,7.80
2023-03-10T05:04:08.159Z,7.71
2023-03-10T05:09:09.982Z,7.60
2023-03-10T05:14:12.838Z,7.67
2023-03-10T05:19:14.663Z,7.75
2023-03-10T05:24:16.970Z,7.87
2023-03-10T05:29:20.836Z,7.97
2023-03-10T05:34:27.826Z,8.12
2023-03-10T05:39:32.610Z,8.24
2023-03-10T05:44:38.555Z,8.43
2023-03-10T05:49:41.461Z,8.62
2023-03-10T05:54:43.713Z,8.81
2023-03-10T05:59:47.666Z,8.90
2023-03-10T06:04:49.842Z,8.92
2023-03-10T06:09:53.976Z,8.87
2023-03-10T06:14:55.565Z,8.77
2023-03-10T06:19:57.301Z,8.68
2023-03-10T06:24:58.822Z,8.62
2023-03-10T06:30:00.554Z,8.52
2023-03-10T06:35:02.164Z,8.60
2023-03-10T06:40:04.494Z,8.64
2023-03-10T06:45:07.681Z,8.60
2023-03-10T06:50:10.632Z,8.68
2023-03-10T06:55:13.783Z,8.97
2023-03-10T07:00:16.086Z,9.39
2023-03-10T07:05:17.648Z,10.02
2023-03-10T07:10:19.335Z,10.34
2023-03-10T07:15:22.740Z,10.04
2023-03-10T07:20:24.536Z,9.27
2023-03-10T07:25:26.333Z,8.78
2023-03-10T07:30:27.921Z,8.38
2023-03-10T07:35:29.506Z,8.02
2023-03-10T07:40:31.039Z,7.80
2023-03-10T07:45:33.563Z,7.69
2023-03-10T07:50:35.091Z,7.24
2023-03-10T07:55:38.442Z,7.07
2023-03-10T08:00:40.518Z,7.06
2023-03-10T08:05:42.445Z,6.94
2023-03-10T08:10:44.288Z,6.94
2023-03-10T08:15:45.840Z,7.09
2023-03-10T08:20:47.376Z,7.23
2023-03-10T08:25:48.958Z,7.31
2023-03-10T08:31:03.727Z,7.40
2023-03-10T08:36:15.337Z,7.46
2023-03-10T08:41:21.695Z,7.64
2023-03-10T08:46:25.171Z,7.70
2023-03-10T08:51:28.214Z,7.75
2023-03-10T08:56:30.020Z,7.77
2023-03-10T09:01:34.258Z,7.93
2023-03-10T09:06:36.913Z,8.17
2023-03-10T09:11:40.410Z,8.18
2023-03-10T09:16:42.118Z,8.31
2023-03-10T09:21:43.733Z,8.70
2023-03-10T09:26:45.775Z,8.93
2023-03-10T09:31:48.309Z,8.88
2023-03-10T09:36:50.042Z,8.65
2023-03-10T09:42:36.355Z,8.84
2023-03-10T09:47:53.175Z,8.90
2023-03-10T09:53:25.976Z,8.96
2023-03-10T09:58:30.718Z,8.88
2023-03-10T10:03:37.276Z,8.88
2023-03-10T10:09:03.506Z,8.54
2023-03-10T10:14:29.472Z,8.48
2023-03-10T10:19:37.119Z,8.66
2023-03-10T10:24:40.609Z,8.89
2023-03-10T10:29:46.924Z,9.21
2023-03-10T10:34:49.277Z,9.55
2023-03-10T10:39:52.990Z,9.51
2023-03-10T10:45:04.050Z,9.67
2023-03-10T10:50:18.245Z,9.81
2023-03-10T10:55:29.025Z,9.85
2023-03-10T11:00:39.751Z,9.67
2023-03-10T11:05:41.364Z,9.55
2023-03-10T11:10:43.913Z,9.43
2023-03-10T11:15:55.925Z,9.41
2023-03-10T11:21:07.165Z,9.50
2023-03-10T11:26:22.422Z,9.47
2023-03-10T11:31:46.004Z,9.35
2023-03-10T11:37:00.826Z,9.45
2023-03-10T11:42:29.597Z,9.59
2023-03-10T11:47:44.912Z,9.79
2023-03-10T11:52:50.815Z,9.75
2023-03-10T11:57:57.828Z,9.55
2023-03-10T12:03:18.113Z,9.40
2023-03-10T12:08:25.319Z,9.45
2023-03-10T12:13:55.705Z,9.42
2023-03-10T12:18:58.081Z,9.38
2023-03-10T12:24:02.264Z,9.26
2023-03-10T12:29:32.367Z,9.21
2023-03-10T12:34:33.919Z,9.08
2023-03-10T12:39:43.603Z,8.92
2023-03-10T12:44:51.304Z,8.71
2023-03-10T12:50:22.901Z,8.43
2023-03-10T12:55:27.744Z,8.24
2023-03-10T13:00:40.784Z,8.13
2023-03-10T13:05:57.565Z,7.94
2023-03-10T13:11:00.401Z,7.81
2023-03-10T13:16:06.922Z,7.80
2023-03-10T13:21:42.139Z,7.86
2023-03-10T13:26:43.667Z,7.97
2023-03-10T13:31:55.723Z,8.02
2023-03-10T13:37:10.037Z,7.96
2023-03-10T13:42:40.990Z,7.80
2023-03-10T13:47:44.456Z,7.69
2023-03-10T13:52:54.703Z,7.51
2023-03-10T13:57:57.990Z,7.38
2023-03-10T14:02:59.631Z,7.25
2023-03-10T14:08:01.326Z,7.13
2023-03-10T14:13:02.857Z,7.11
2023-03-10T14:18:07.472Z,7.08
2023-03-10T14:23:26.545Z,6.93
2023-03-10T14:28:31.318Z,6.92
2023-03-10T14:33:33.028Z,7.10
2023-03-10T14:38:34.614Z,7.29
2023-03-10T14:43:36.166Z,7.32
2023-03-10T14:48:41.800Z,7.24
2023-03-10T14:53:43.804Z,7.07
2023-03-10T14:58:49.608Z,6.91
2023-03-10T15:03:51.391Z,6.73
2023-03-10T15:08:52.997Z,6.74
2023-03-10T15:13:54.502Z,7.04
2023-03-10T15:18:56.021Z,7.46
2023-03-10T15:23:57.606Z,7.76
2023-03-10T15:28:59.098Z,7.79
2023-03-10T15:34:00.658Z,7.58
2023-03-10T15:39:02.441Z,7.54
2023-03-10T15:44:04.787Z,7.58
2023-03-10T15:49:06.765Z,7.77
2023-03-10T15:54:12.377Z,8.00
2023-03-10T15:59:16.103Z,8.00
2023-03-10T16:04:18.298Z,7.90
2023-03-10T16:09:19.829Z,7.85
2023-03-10T16:14:21.422Z,7.88
2023-03-10T16:19:23.364Z,7.83
2023-03-10T16:24:25.029Z,7.68
2023-03-10T16:29:26.611Z,7.55
2023-03-10T16:34:28.297Z,7.43
2023-03-10T16:39:34.883Z,7.27
2023-03-10T16:44:36.398Z,7.14
2023-03-10T16:49:38.029Z,7.04
2023-03-10T16:54:39.624Z,6.92
2023-03-10T16:59:42.636Z,6.87
2023-03-10T17:04:45.299Z,6.86
2023-03-10T17:09:46.873Z,6.82
2023-03-10T17:14:50.755Z,6.64
2023-03-10T17:19:52.512Z,6.51
2023-03-10T17:24:55.322Z,5.75
2023-03-10T17:29:56.835Z,5.18
2023-03-10T17:34:58.499Z,4.91
2023-03-10T17:40:00.138Z,4.76
2023-03-10T17:45:05.779Z,4.75
2023-03-10T17:50:08.988Z,4.94
2023-03-10T17:55:10.878Z,5.29
2023-03-10T18:00:13.174Z,5.52
2023-03-10T18:05:14.765Z,5.61
2023-03-10T18:10:17.324Z,5.61
2023-03-10T18:15:19.042Z,5.51
2023-03-10T18:20:20.684Z,5.39
2023-03-10T18:25:22.199Z,5.35
2023-03-10T18:30:24.684Z,5.35
2023-03-10T18:35:28.692Z,5.38
2023-03-10T18:40:30.225Z,5.25
2023-03-10T18:45:33.884Z,5.22
2023-03-10T18:50:35.416Z,4.75
2023-03-10T18:55:36.934Z,4.33
2023-03-10T19:00:38.658Z,4.17
2023-03-10T19:05:41.310Z,4.09
2023-03-10T19:10:42.912Z,4.21
2023-03-10T19:15:44.517Z,4.56
2023-03-10T19:20:46.519Z,4.79
2023-03-10T19:25:48.043Z,4.89
2023-03-10T19:30:49.644Z,4.92
2023-03-10T19:36:03.070Z,4.72
2023-03-10T19:41:05.838Z,4.70
2023-03-10T19:46:11.492Z,4.68
2023-03-10T19:51:27.910Z,4.60
2023-03-10T19:56:35.082Z,4.54
2023-03-10T20:01:39.037Z,4.47
2023-03-10T20:06:40.710Z,4.41
2023-03-10T20:11:42.220Z,4.33
2023-03-10T20:16:43.728Z,4.16
2023-03-10T20:21:46.396Z,4.04
2023-03-10T20:26:48.842Z,4.00
2023-03-10T20:31:50.493Z,3.87
2023-03-10T20:36:52.115Z,3.75
2023-03-10T20:41:53.610Z,3.65
2023-03-10T20:46:55.179Z,3.45
2023-03-10T20:51:56.712Z,3.45
2023-03-10T20:56:58.241Z,3.45
2023-03-10T21:01:59.842Z,3.46
2023-03-10T21:07:01.378Z,3.47
2023-03-10T21:12:03.321Z,3.53
2023-03-10T21:17:05.368Z,3.55
2023-03-10T21:22:07.032Z,3.56
2023-03-10T21:27:08.626Z,3.55
2023-03-10T21:32:10.152Z,3.55
2023-03-10T21:37:12.067Z,3.52
2023-03-10T21:42:14.568Z,3.45
2023-03-10T21:47:16.404Z,3.35
2023-03-10T21:52:18.238Z,3.34
2023-03-10T21:57:19.773Z,3.35
2023-03-10T22:02:28.007Z,3.33
2023-03-10T22:07:29.495Z,3.29
2023-03-10T22:12:31.098Z,3.20
2023-03-10T22:17:33.610Z,3.15
2023-03-10T22:22:35.151Z,3.14
2023-03-10T22:27:36.666Z,3.10
2023-03-10T22:32:38.233Z,3.05
2023-03-10T22:37:40.603Z,3.02
2023-03-10T22:42:43.668Z,2.98
2023-03-10T22:47:45.524Z,2.96
2023-03-10T22:52:47.153Z,2.81
2023-03-10T22:57:48.652Z,2.53
2023-03-10T23:02:50.779Z,2.44
2023-03-10T23:07:53.503Z,2.38
2023-03-10T23:12:57.890Z,2.16
2023-03-10T23:17:59.855Z,1.91
2023-03-10T23:23:03.753Z,1.72
2023-03-10T23:28:07.247Z,1.53
2023-03-10T23:33:12.572Z,1.41
2023-03-10T23:38:14.145Z,1.29
2023-03-10T23:43:15.759Z,1.28
2023-03-10T23:48:18.384Z,1.29
2023-03-10T23:53:20.814Z,1.25
2023-03-10T23:58:22.769Z,1.18
